Barneveld, Wisconsin
Current Conditions -  °F | °C
As of 10:35 AM on Friday 24 Oct 2014 (Local Time) from KMRJ Reporting Station
Moderate Fog Moderate Fog  
Wind Chill: 54°   Ceiling: 200
Heat Index: 54°   Visibility: 0mi
Dew Point: 52°   Wind: 7mph
Humidity: 94%   Direction: 170°S
Pressure: 30.04"   Gusts: NA
Location:  43.02°N, 89.9°W
Report Text: KMRJ 241535Z AUTO 17006KT M1/4SM FG OVC002 12/11 A3004 RMK AO2
Loading
Personal Weather Stations






























Interactive Weather Map
Tropical Storm Tracking
New forecast layout! Learn more

10-Day Weather Forecast

Advertisements
Track Severe Weather on mobile